Time,TemperatureF,DewpointF,PressureIn,WindDirection,WindDirectionDegrees,WindSpeedMPH,WindSpeedGustMPH,Humidity,HourlyPrecipIn,Conditions,Clouds,dailyrainin,SolarRadiationWatts/m^2,SoftwareType,DateUTC
2013-05-09 00:12:00,57.0,51.0,-100.00,ESE,112,2.0,4.0,80,0.00,,,0.00,0.000000,,2013-05-09 07:12:00,
2013-05-09 00:21:00,57.0,51.0,-100.00,ESE,112,2.0,4.0,80,0.00,,,0.00,0.000000,,2013-05-09 07:21:00,
2013-05-09 00:32:00,57.0,51.0,-100.00,ESE,112,2.0,4.0,80,0.00,,,0.00,0.000000,,2013-05-09 07:32:00,
2013-05-09 00:42:00,57.0,51.0,-100.00,ESE,112,2.0,4.0,80,0.00,,,0.00,0.000000,,2013-05-09 07:42:00,
2013-05-09 00:51:00,56.0,52.0,-100.00,WNW,284,0.0,2.0,85,0.00,,,0.00,0.000000,,2013-05-09 07:51:00,
2013-05-09 01:11:00,56.0,52.0,-100.00,WNW,284,0.0,2.0,85,0.00,,,0.00,0.000000,,2013-05-09 08:11:00,
2013-05-09 01:21:00,56.0,52.0,-100.00,WNW,284,0.0,2.0,85,0.00,,,0.00,0.000000,,2013-05-09 08:21:00,
2013-05-09 01:31:00,56.0,52.0,-100.00,WNW,284,0.0,2.0,85,0.00,,,0.00,0.000000,,2013-05-09 08:31:00,
2013-05-09 01:41:00,56.0,52.0,-100.00,WNW,284,0.0,2.0,85,0.00,,,0.00,0.000000,,2013-05-09 08:41:00,
2013-05-09 01:51:00,55.0,50.0,-100.00,East,94,2.0,3.0,84,0.00,,,0.00,0.000000,,2013-05-09 08:51:00,
2013-05-09 02:11:00,55.0,50.0,-100.00,East,94,2.0,3.0,84,0.00,,,0.00,0.000000,,2013-05-09 09:11:00,
2013-05-09 02:21:00,55.0,50.0,-100.00,East,94,2.0,3.0,84,0.00,,,0.00,0.000000,,2013-05-09 09:21:00,
2013-05-09 02:32:00,55.0,50.0,-100.00,East,94,2.0,3.0,84,0.00,,,0.00,0.000000,,2013-05-09 09:32:00,
2013-05-09 02:42:00,55.0,50.0,-100.00,East,94,2.0,3.0,84,0.00,,,0.00,0.000000,,2013-05-09 09:42:00,
2013-05-09 02:51:00,54.0,49.0,-100.00,ENE,62,4.0,5.0,84,0.00,,,0.00,0.000000,,2013-05-09 09:51:00,
2013-05-09 03:22:00,54.0,49.0,-100.00,ENE,62,4.0,5.0,84,0.00,,,0.00,0.000000,,2013-05-09 10:22:00,
2013-05-09 03:33:00,54.0,49.0,-100.00,ENE,62,4.0,5.0,84,0.00,,,0.00,0.000000,,2013-05-09 10:33:00,
2013-05-09 03:42:00,54.0,49.0,-100.00,ENE,62,4.0,5.0,84,0.00,,,0.00,0.000000,,2013-05-09 10:42:00,
2013-05-09 03:51:00,52.0,48.0,-100.00,ENE,71,5.0,6.0,86,0.00,,,-99.99,0.000000,,2013-05-09 10:51:00,
2013-05-09 04:22:00,52.0,48.0,-100.00,ENE,71,5.0,6.0,86,0.00,,,-99.99,0.000000,,2013-05-09 11:22:00,
2013-05-09 04:32:00,52.0,48.0,-100.00,ENE,71,5.0,6.0,86,0.00,,,-99.99,0.000000,,2013-05-09 11:32:00,
2013-05-09 04:41:00,52.0,48.0,-100.00,ENE,71,5.0,6.0,86,0.00,,,-99.99,0.000000,,2013-05-09 11:41:00,
2013-05-09 04:51:00,51.0,46.0,-100.00,ENE,72,6.0,10.0,84,0.00,,,0.00,0.000000,,2013-05-09 11:51:00,
2013-05-09 05:11:00,51.0,46.0,-100.00,ENE,72,6.0,10.0,84,0.00,,,0.00,0.000000,,2013-05-09 12:11:00,
2013-05-09 05:22:00,51.0,46.0,-100.00,ENE,72,6.0,10.0,84,0.00,,,0.00,0.000000,,2013-05-09 12:22:00,
2013-05-09 05:31:00,51.0,46.0,-100.00,ENE,72,6.0,10.0,84,0.00,,,0.00,0.000000,,2013-05-09 12:31:00,
2013-05-09 05:42:00,51.0,46.0,-100.00,ENE,72,6.0,10.0,84,0.00,,,0.00,0.000000,,2013-05-09 12:42:00,
2013-05-09 05:51:00,51.0,46.0,-100.00,ENE,70,7.0,10.0,83,0.00,,,0.00,0.000000,,2013-05-09 12:51:00,
2013-05-09 06:21:00,51.0,46.0,-100.00,ENE,70,7.0,10.0,83,0.00,,,0.00,0.000000,,2013-05-09 13:21:00,
2013-05-09 06:32:00,51.0,46.0,-100.00,ENE,70,7.0,10.0,83,0.00,,,0.00,0.000000,,2013-05-09 13:32:00,
2013-05-09 06:42:00,51.0,46.0,-100.00,ENE,70,7.0,10.0,83,0.00,,,0.00,0.000000,,2013-05-09 13:42:00,
2013-05-09 06:51:00,53.0,46.0,-100.00,ENE,75,4.0,9.0,78,0.00,,,0.00,36.000000,,2013-05-09 13:51:00,
2013-05-09 07:11:00,53.0,46.0,-100.00,ENE,75,4.0,9.0,78,0.00,,,0.00,36.000000,,2013-05-09 14:11:00,
2013-05-09 07:21:00,53.0,46.0,-100.00,ENE,75,4.0,9.0,78,0.00,,,0.00,36.000000,,2013-05-09 14:21:00,
2013-05-09 07:32:00,53.0,46.0,-100.00,ENE,75,4.0,9.0,78,0.00,,,0.00,36.000000,,2013-05-09 14:32:00,
2013-05-09 07:41:00,53.0,46.0,-100.00,ENE,75,4.0,9.0,78,0.00,,,0.00,36.000000,,2013-05-09 14:41:00,
2013-05-09 07:51:00,59.0,50.0,-100.00,ENE,76,3.0,6.0,71,0.00,,,0.00,170.000000,,2013-05-09 14:51:00,
2013-05-09 08:11:00,59.0,50.0,-100.00,ENE,76,3.0,6.0,71,0.00,,,0.00,170.000000,,2013-05-09 15:11:00,
2013-05-09 08:21:00,59.0,50.0,-100.00,ENE,76,3.0,6.0,71,0.00,,,0.00,170.000000,,2013-05-09 15:21:00,
2013-05-09 08:33:00,59.0,50.0,-100.00,ENE,76,3.0,6.0,71,0.00,,,0.00,170.000000,,2013-05-09 15:33:00,
2013-05-09 08:43:00,59.0,50.0,-100.00,ENE,76,3.0,6.0,71,0.00,,,0.00,170.000000,,2013-05-09 15:43:00,
2013-05-09 08:51:00,64.0,52.0,-100.00,WSW,247,3.0,7.0,65,0.00,,,0.00,399.000000,,2013-05-09 15:51:00,
2013-05-09 09:12:00,64.0,52.0,-100.00,WSW,247,3.0,7.0,65,0.00,,,0.00,399.000000,,2013-05-09 16:12:00,
2013-05-09 09:22:00,64.0,52.0,-100.00,WSW,247,3.0,7.0,65,0.00,,,0.00,399.000000,,2013-05-09 16:22:00,
2013-05-09 09:33:00,64.0,52.0,-100.00,WSW,247,3.0,7.0,65,0.00,,,0.00,399.000000,,2013-05-09 16:33:00,
2013-05-09 09:42:00,64.0,52.0,-100.00,WSW,247,3.0,7.0,65,0.00,,,0.00,399.000000,,2013-05-09 16:42:00,
2013-05-09 09:51:00,65.0,51.0,-100.00,West,266,5.0,10.0,60,0.00,,,0.00,579.000000,,2013-05-09 16:51:00,
2013-05-09 10:21:00,65.0,51.0,-100.00,West,266,5.0,10.0,60,0.00,,,0.00,579.000000,,2013-05-09 17:21:00,
2013-05-09 10:32:00,65.0,51.0,-100.00,West,266,5.0,10.0,60,0.00,,,0.00,579.000000,,2013-05-09 17:32:00,
2013-05-09 10:42:00,65.0,51.0,-100.00,West,266,5.0,10.0,60,0.00,,,0.00,579.000000,,2013-05-09 17:42:00,
2013-05-09 10:51:00,68.0,51.0,-100.00,WSW,254,9.0,15.0,55,0.00,,,0.00,761.000000,,2013-05-09 17:51:00,
2013-05-09 11:21:00,68.0,51.0,-100.00,WSW,254,9.0,15.0,55,0.00,,,0.00,761.000000,,2013-05-09 18:21:00,
2013-05-09 11:31:00,68.0,51.0,-100.00,WSW,254,9.0,15.0,55,0.00,,,0.00,761.000000,,2013-05-09 18:31:00,
2013-05-09 11:42:00,68.0,51.0,-100.00,WSW,254,9.0,15.0,55,0.00,,,0.00,761.000000,,2013-05-09 18:42:00,
2013-05-09 11:51:00,69.0,52.0,-100.00,WSW,254,12.0,19.0,55,0.00,,,0.00,922.000000,,2013-05-09 18:51:00,
2013-05-09 12:21:00,69.0,52.0,-100.00,WSW,254,12.0,19.0,55,0.00,,,0.00,922.000000,,2013-05-09 19:21:00,
2013-05-09 12:31:00,69.0,52.0,-100.00,WSW,254,12.0,19.0,55,0.00,,,0.00,922.000000,,2013-05-09 19:31:00,
2013-05-09 12:41:00,69.0,52.0,-100.00,WSW,254,12.0,19.0,55,0.00,,,0.00,922.000000,,2013-05-09 19:41:00,
2013-05-09 12:51:00,70.0,53.0,-100.00,WSW,253,12.0,19.0,54,0.00,,,0.00,926.000000,,2013-05-09 19:51:00,
2013-05-09 13:22:00,70.0,53.0,-100.00,WSW,253,12.0,19.0,54,0.00,,,0.00,926.000000,,2013-05-09 20:22:00,
2013-05-09 13:32:00,70.0,53.0,-100.00,WSW,253,12.0,19.0,54,0.00,,,0.00,926.000000,,2013-05-09 20:32:00,
2013-05-09 13:42:00,70.0,53.0,-100.00,WSW,253,12.0,19.0,54,0.00,,,0.00,926.000000,,2013-05-09 20:42:00,
2013-05-09 13:51:00,70.0,52.0,-100.00,WSW,248,13.0,22.0,53,0.00,,,0.00,960.000000,,2013-05-09 20:51:00,
2013-05-09 14:22:00,70.0,52.0,-100.00,WSW,248,13.0,22.0,53,0.00,,,0.00,960.000000,,2013-05-09 21:22:00,
2013-05-09 14:32:00,70.0,52.0,-100.00,WSW,248,13.0,22.0,53,0.00,,,0.00,960.000000,,2013-05-09 21:32:00,
2013-05-09 14:43:00,70.0,52.0,-100.00,WSW,248,13.0,22.0,53,0.00,,,0.00,960.000000,,2013-05-09 21:43:00,
2013-05-09 14:51:00,69.0,54.0,-100.00,West,259,15.0,20.0,58,0.00,,,0.00,863.000000,,2013-05-09 21:51:00,
2013-05-09 15:22:00,69.0,54.0,-100.00,West,259,15.0,20.0,58,0.00,,,0.00,863.000000,,2013-05-09 22:22:00,
2013-05-09 15:33:00,69.0,54.0,-100.00,West,259,15.0,20.0,58,0.00,,,0.00,863.000000,,2013-05-09 22:33:00,
2013-05-09 15:42:00,69.0,54.0,-100.00,West,259,15.0,20.0,58,0.00,,,0.00,863.000000,,2013-05-09 22:42:00,
2013-05-09 15:51:00,69.0,53.0,-100.00,West,265,13.0,20.0,56,0.00,,,0.00,775.000000,,2013-05-09 22:51:00,
2013-05-09 16:12:00,69.0,53.0,-100.00,West,265,13.0,20.0,56,0.00,,,0.00,775.000000,,2013-05-09 23:12:00,
2013-05-09 16:21:00,69.0,53.0,-100.00,West,265,13.0,20.0,56,0.00,,,0.00,775.000000,,2013-05-09 23:21:00,
2013-05-09 16:32:00,69.0,53.0,-100.00,West,265,13.0,20.0,56,0.00,,,0.00,775.000000,,2013-05-09 23:32:00,
2013-05-09 16:42:00,69.0,53.0,-100.00,West,265,13.0,20.0,56,0.00,,,0.00,775.000000,,2013-05-09 23:42:00,
2013-05-09 16:51:00,64.0,52.0,-100.00,WSW,253,11.0,20.0,66,0.00,,,0.00,311.000000,,2013-05-09 23:51:00,
2013-05-09 17:11:00,64.0,52.0,-100.00,WSW,253,11.0,20.0,66,0.00,,,0.00,311.000000,,2013-05-10 00:11:00,
2013-05-09 17:22:00,64.0,52.0,-100.00,WSW,253,11.0,20.0,66,0.00,,,0.00,311.000000,,2013-05-10 00:22:00,
2013-05-09 17:32:00,64.0,52.0,-100.00,WSW,253,11.0,20.0,66,0.00,,,0.00,311.000000,,2013-05-10 00:32:00,
2013-05-09 17:42:00,64.0,52.0,-100.00,WSW,253,11.0,20.0,66,0.00,,,0.00,311.000000,,2013-05-10 00:42:00,
2013-05-09 17:51:00,64.0,52.0,-100.00,SW,232,8.0,17.0,64,0.00,,,0.00,363.000000,,2013-05-10 00:51:00,
2013-05-09 18:21:00,64.0,52.0,-100.00,SW,232,8.0,17.0,64,0.00,,,0.00,363.000000,,2013-05-10 01:21:00,
2013-05-09 18:31:00,64.0,52.0,-100.00,SW,232,8.0,17.0,64,0.00,,,0.00,363.000000,,2013-05-10 01:31:00,
2013-05-09 18:41:00,64.0,52.0,-100.00,SW,232,8.0,17.0,64,0.00,,,0.00,363.000000,,2013-05-10 01:41:00,
2013-05-09 18:51:00,62.0,52.0,-100.00,WSW,258,7.0,12.0,69,0.00,,,0.00,160.000000,,2013-05-10 01:51:00,
2013-05-09 19:21:00,62.0,52.0,-100.00,WSW,258,7.0,12.0,69,0.00,,,0.00,160.000000,,2013-05-10 02:21:00,
2013-05-09 19:31:00,62.0,52.0,-100.00,WSW,258,7.0,12.0,69,0.00,,,0.00,160.000000,,2013-05-10 02:31:00,
2013-05-09 19:42:00,62.0,52.0,-100.00,WSW,258,7.0,12.0,69,0.00,,,0.00,160.000000,,2013-05-10 02:42:00,
2013-05-09 19:51:00,59.0,52.0,-100.00,West,278,7.0,11.0,77,0.00,,,0.00,12.000000,,2013-05-10 02:51:00,
2013-05-09 20:21:00,59.0,52.0,-100.00,West,278,7.0,11.0,77,0.00,,,0.00,12.000000,,2013-05-10 03:21:00,
2013-05-09 20:32:00,59.0,52.0,-100.00,West,278,7.0,11.0,77,0.00,,,0.00,12.000000,,2013-05-10 03:32:00,
2013-05-09 20:43:00,59.0,52.0,-100.00,West,278,7.0,11.0,77,0.00,,,0.00,12.000000,,2013-05-10 03:43:00,
2013-05-09 20:51:00,58.0,52.0,-100.00,SE,130,3.0,8.0,81,0.00,,,0.00,0.000000,,2013-05-10 03:51:00,
2013-05-09 21:12:00,58.0,52.0,-100.00,SE,130,3.0,8.0,81,0.00,,,0.00,0.000000,,2013-05-10 04:12:00,
2013-05-09 21:23:00,58.0,52.0,-100.00,SE,130,3.0,8.0,81,0.00,,,0.00,0.000000,,2013-05-10 04:23:00,
2013-05-09 21:33:00,58.0,52.0,-100.00,SE,130,3.0,8.0,81,0.00,,,0.00,0.000000,,2013-05-10 04:33:00,
2013-05-09 21:42:00,58.0,52.0,-100.00,SE,130,3.0,8.0,81,0.00,,,0.00,0.000000,,2013-05-10 04:42:00,
2013-05-09 21:51:00,57.0,53.0,-100.00,South,182,7.0,11.0,85,0.00,,,0.00,0.000000,,2013-05-10 04:51:00,
2013-05-09 22:22:00,57.0,53.0,-100.00,South,182,7.0,11.0,85,0.00,,,0.00,0.000000,,2013-05-10 05:22:00,
2013-05-09 22:32:00,57.0,53.0,-100.00,South,182,7.0,11.0,85,0.00,,,0.00,0.000000,,2013-05-10 05:32:00,
2013-05-09 22:42:00,57.0,53.0,-100.00,South,182,7.0,11.0,85,0.00,,,0.00,0.000000,,2013-05-10 05:42:00,
2013-05-09 22:51:00,56.0,53.0,-100.00,NW,307,4.0,10.0,90,0.00,,,0.00,0.000000,,2013-05-10 05:51:00,
2013-05-09 23:12:00,56.0,53.0,-100.00,NW,307,4.0,10.0,90,0.00,,,0.00,0.000000,,2013-05-10 06:12:00,
2013-05-09 23:21:00,56.0,53.0,-100.00,NW,307,4.0,10.0,90,0.00,,,0.00,0.000000,,2013-05-10 06:21:00,
2013-05-09 23:32:00,56.0,53.0,-100.00,NW,307,4.0,10.0,90,0.00,,,0.00,0.000000,,2013-05-10 06:32:00,
2013-05-09 23:41:00,56.0,53.0,-100.00,NW,307,4.0,10.0,90,0.00,,,0.00,0.000000,,2013-05-10 06:41:00,
2013-05-09 23:51:00,56.0,54.0,-100.00,SW,219,0.0,7.0,92,0.00,,,0.00,0.000000,,2013-05-10 06:51:00,